sensor_id;sensor_type;location;lat;lon;timestamp;temperature;humidity
69715;HTU21D;56981;53.532;49.398;2022-08-03T00:00:14;18.20;78.62
69715;HTU21D;56981;53.532;49.398;2022-08-03T00:02:40;18.18;78.65
69715;HTU21D;56981;53.532;49.398;2022-08-03T00:05:07;18.15;79.00
69715;HTU21D;56981;53.532;49.398;2022-08-03T00:07:33;18.09;78.56
69715;HTU21D;56981;53.532;49.398;2022-08-03T00:10:00;18.00;79.33
69715;HTU21D;56981;53.532;49.398;2022-08-03T00:12:26;17.95;80.77
69715;HTU21D;56981;53.532;49.398;2022-08-03T00:14:52;17.91;79.74
69715;HTU21D;56981;53.532;49.398;2022-08-03T00:17:18;17.89;80.75
69715;HTU21D;56981;53.532;49.398;2022-08-03T00:19:44;17.83;80.29
69715;HTU21D;56981;53.532;49.398;2022-08-03T00:22:11;17.81;79.90
69715;HTU21D;56981;53.532;49.398;2022-08-03T00:24:37;17.80;81.30
69715;HTU21D;56981;53.532;49.398;2022-08-03T00:27:03;17.76;79.82
69715;HTU21D;56981;53.532;49.398;2022-08-03T00:29:30;17.76;81.14
69715;HTU21D;56981;53.532;49.398;2022-08-03T00:31:56;17.73;80.72
69715;HTU21D;56981;53.532;49.398;2022-08-03T00:34:22;17.68;81.39
69715;HTU21D;56981;53.532;49.398;2022-08-03T00:36:48;17.64;80.72
69715;HTU21D;56981;53.532;49.398;2022-08-03T00:39:14;17.54;80.04
69715;HTU21D;56981;53.532;49.398;2022-08-03T00:41:40;17.54;80.40
69715;HTU21D;56981;53.532;49.398;2022-08-03T00:44:06;17.52;79.89
69715;HTU21D;56981;53.532;49.398;2022-08-03T00:46:32;17.47;82.22
69715;HTU21D;56981;53.532;49.398;2022-08-03T00:48:58;17.46;80.72
69715;HTU21D;56981;53.532;49.398;2022-08-03T00:51:24;17.46;81.23
69715;HTU21D;56981;53.532;49.398;2022-08-03T00:53:50;17.44;79.59
69715;HTU21D;56981;53.532;49.398;2022-08-03T00:56:17;17.38;81.34
69715;HTU21D;56981;53.532;49.398;2022-08-03T00:58:44;17.39;79.91
69715;HTU21D;56981;53.532;49.398;2022-08-03T01:01:11;17.37;80.81
69715;HTU21D;56981;53.532;49.398;2022-08-03T01:03:37;17.41;81.12
69715;HTU21D;56981;53.532;49.398;2022-08-03T01:06:17;17.41;80.32
69715;HTU21D;56981;53.532;49.398;2022-08-03T01:09:15;17.45;79.91
69715;HTU21D;56981;53.532;49.398;2022-08-03T01:12:51;17.40;79.01
69715;HTU21D;56981;53.532;49.398;2022-08-03T01:17:54;17.28;80.94
69715;HTU21D;56981;53.532;49.398;2022-08-03T01:20:23;17.30;79.68
69715;HTU21D;56981;53.532;49.398;2022-08-03T01:31:25;17.72;77.74
69715;HTU21D;56981;53.532;49.398;2022-08-03T01:33:56;18.38;76.16
69715;HTU21D;56981;53.532;49.398;2022-08-03T01:36:27;18.91;71.47
69715;HTU21D;56981;53.532;49.398;2022-08-03T01:38:57;19.44;70.52
69715;HTU21D;56981;53.532;49.398;2022-08-03T01:41:32;19.97;67.33
69715;HTU21D;56981;53.532;49.398;2022-08-03T01:44:01;20.47;65.62
69715;HTU21D;56981;53.532;49.398;2022-08-03T01:46:30;20.87;64.14
69715;HTU21D;56981;53.532;49.398;2022-08-03T01:48:56;21.39;61.90
69715;HTU21D;56981;53.532;49.398;2022-08-03T01:51:24;21.96;60.57
69715;HTU21D;56981;53.532;49.398;2022-08-03T01:53:52;22.25;58.86
69715;HTU21D;56981;53.532;49.398;2022-08-03T01:56:21;22.64;58.03
69715;HTU21D;56981;53.532;49.398;2022-08-03T01:58:48;23.09;57.06
69715;HTU21D;56981;53.532;49.398;2022-08-03T02:01:16;23.49;55.43
69715;HTU21D;56981;53.532;49.398;2022-08-03T02:03:44;23.89;53.60
69715;HTU21D;56981;53.532;49.398;2022-08-03T02:06:12;24.14;52.92
69715;HTU21D;56981;53.532;49.398;2022-08-03T02:08:39;24.43;52.17
69715;HTU21D;56981;53.532;49.398;2022-08-03T02:11:07;24.95;51.56
69715;HTU21D;56981;53.532;49.398;2022-08-03T02:13:34;25.06;50.98
69715;HTU21D;56981;53.532;49.398;2022-08-03T02:16:01;25.38;49.98
69715;HTU21D;56981;53.532;49.398;2022-08-03T02:18:29;25.77;48.26
69715;HTU21D;56981;53.532;49.398;2022-08-03T02:21:00;26.37;46.89
69715;HTU21D;56981;53.532;49.398;2022-08-03T02:23:27;26.76;45.80
69715;HTU21D;56981;53.532;49.398;2022-08-03T02:25:59;26.91;45.57
69715;HTU21D;56981;53.532;49.398;2022-08-03T02:28:33;26.92;45.94
69715;HTU21D;56981;53.532;49.398;2022-08-03T02:31:03;27.24;45.28
69715;HTU21D;56981;53.532;49.398;2022-08-03T02:33:33;27.98;43.31
69715;HTU21D;56981;53.532;49.398;2022-08-03T02:36:01;28.31;43.46
69715;HTU21D;56981;53.532;49.398;2022-08-03T02:38:33;28.50;42.03
69715;HTU21D;56981;53.532;49.398;2022-08-03T02:41:02;28.78;41.71
69715;HTU21D;56981;53.532;49.398;2022-08-03T02:43:30;28.68;41.99
69715;HTU21D;56981;53.532;49.398;2022-08-03T02:45:58;28.69;42.16
69715;HTU21D;56981;53.532;49.398;2022-08-03T02:48:26;29.45;39.88
69715;HTU21D;56981;53.532;49.398;2022-08-03T02:50:57;29.68;40.00
69715;HTU21D;56981;53.532;49.398;2022-08-03T02:53:24;30.16;39.41
69715;HTU21D;56981;53.532;49.398;2022-08-03T02:55:51;30.30;38.74
69715;HTU21D;56981;53.532;49.398;2022-08-03T02:58:20;30.82;37.64
69715;HTU21D;56981;53.532;49.398;2022-08-03T03:00:49;31.21;37.83
69715;HTU21D;56981;53.532;49.398;2022-08-03T03:03:19;31.41;35.92
69715;HTU21D;56981;53.532;49.398;2022-08-03T03:05:47;31.20;37.06
69715;HTU21D;56981;53.532;49.398;2022-08-03T03:08:16;31.15;37.10
69715;HTU21D;56981;53.532;49.398;2022-08-03T03:10:43;31.34;36.73
69715;HTU21D;56981;53.532;49.398;2022-08-03T03:13:11;31.34;37.33
69715;HTU21D;56981;53.532;49.398;2022-08-03T03:15:39;31.58;36.76
69715;HTU21D;56981;53.532;49.398;2022-08-03T03:18:06;31.73;36.53
69715;HTU21D;56981;53.532;49.398;2022-08-03T03:20:36;31.52;36.82
69715;HTU21D;56981;53.532;49.398;2022-08-03T03:23:04;31.63;36.89
69715;HTU21D;56981;53.532;49.398;2022-08-03T03:25:31;31.73;36.77
69715;HTU21D;56981;53.532;49.398;2022-08-03T03:28:02;32.12;35.88
69715;HTU21D;56981;53.532;49.398;2022-08-03T03:30:29;32.83;34.44
69715;HTU21D;56981;53.532;49.398;2022-08-03T03:32:57;33.31;33.21
69715;HTU21D;56981;53.532;49.398;2022-08-03T03:35:24;33.58;32.75
69715;HTU21D;56981;53.532;49.398;2022-08-03T03:37:51;34.05;32.05
69715;HTU21D;56981;53.532;49.398;2022-08-03T03:40:17;33.74;32.90
69715;HTU21D;56981;53.532;49.398;2022-08-03T03:42:44;33.74;33.17
69715;HTU21D;56981;53.532;49.398;2022-08-03T03:45:11;33.96;32.57
69715;HTU21D;56981;53.532;49.398;2022-08-03T03:47:37;33.99;32.37
69715;HTU21D;56981;53.532;49.398;2022-08-03T03:50:04;33.86;32.89
69715;HTU21D;56981;53.532;49.398;2022-08-03T03:52:31;34.27;32.20
69715;HTU21D;56981;53.532;49.398;2022-08-03T03:54:58;34.14;32.50
69715;HTU21D;56981;53.532;49.398;2022-08-03T03:57:24;33.51;34.66
69715;HTU21D;56981;53.532;49.398;2022-08-03T03:59:51;33.93;33.57
69715;HTU21D;56981;53.532;49.398;2022-08-03T04:02:17;33.90;33.86
69715;HTU21D;56981;53.532;49.398;2022-08-03T04:04:43;33.32;34.90
69715;HTU21D;56981;53.532;49.398;2022-08-03T04:07:35;33.28;34.84
69715;HTU21D;56981;53.532;49.398;2022-08-03T04:10:27;33.55;35.11
69715;HTU21D;56981;53.532;49.398;2022-08-03T04:13:15;33.90;34.07
69715;HTU21D;56981;53.532;49.398;2022-08-03T04:15:42;33.67;34.96
69715;HTU21D;56981;53.532;49.398;2022-08-03T04:18:10;33.45;35.47
69715;HTU21D;56981;53.532;49.398;2022-08-03T04:20:38;33.29;35.15
69715;HTU21D;56981;53.532;49.398;2022-08-03T04:23:06;33.21;35.71
69715;HTU21D;56981;53.532;49.398;2022-08-03T04:25:35;33.27;35.60
69715;HTU21D;56981;53.532;49.398;2022-08-03T04:28:03;33.57;34.43
69715;HTU21D;56981;53.532;49.398;2022-08-03T04:30:31;34.09;33.75
69715;HTU21D;56981;53.532;49.398;2022-08-03T04:33:00;34.38;33.63
69715;HTU21D;56981;53.532;49.398;2022-08-03T04:35:30;34.95;31.88
69715;HTU21D;56981;53.532;49.398;2022-08-03T04:38:01;34.51;33.02
69715;HTU21D;56981;53.532;49.398;2022-08-03T04:40:36;34.51;33.47
69715;HTU21D;56981;53.532;49.398;2022-08-03T04:43:05;34.70;33.24
69715;HTU21D;56981;53.532;49.398;2022-08-03T04:45:33;34.81;32.97
69715;HTU21D;56981;53.532;49.398;2022-08-03T04:48:01;35.07;32.62
69715;HTU21D;56981;53.532;49.398;2022-08-03T04:50:28;34.94;33.00
69715;HTU21D;56981;53.532;49.398;2022-08-03T04:52:55;35.27;32.56
69715;HTU21D;56981;53.532;49.398;2022-08-03T04:55:29;35.11;33.41
69715;HTU21D;56981;53.532;49.398;2022-08-03T04:57:56;35.25;32.93
69715;HTU21D;56981;53.532;49.398;2022-08-03T05:00:23;35.71;32.06
69715;HTU21D;56981;53.532;49.398;2022-08-03T05:02:49;35.05;33.01
69715;HTU21D;56981;53.532;49.398;2022-08-03T05:05:16;34.25;34.41
69715;HTU21D;56981;53.532;49.398;2022-08-03T05:07:42;34.52;34.28
69715;HTU21D;56981;53.532;49.398;2022-08-03T05:10:10;34.36;35.01
69715;HTU21D;56981;53.532;49.398;2022-08-03T05:12:37;34.32;34.95
69715;HTU21D;56981;53.532;49.398;2022-08-03T05:15:04;34.19;35.39
69715;HTU21D;56981;53.532;49.398;2022-08-03T05:17:30;34.09;35.65
69715;HTU21D;56981;53.532;49.398;2022-08-03T05:19:59;34.22;34.70
69715;HTU21D;56981;53.532;49.398;2022-08-03T05:22:25;33.48;36.25
69715;HTU21D;56981;53.532;49.398;2022-08-03T05:24:52;33.23;36.53
69715;HTU21D;56981;53.532;49.398;2022-08-03T05:27:18;33.64;35.59
69715;HTU21D;56981;53.532;49.398;2022-08-03T05:29:45;33.36;36.77
69715;HTU21D;56981;53.532;49.398;2022-08-03T05:32:11;33.09;36.59
69715;HTU21D;56981;53.532;49.398;2022-08-03T05:34:37;32.55;37.43
69715;HTU21D;56981;53.532;49.398;2022-08-03T05:37:03;32.41;38.44
69715;HTU21D;56981;53.532;49.398;2022-08-03T05:39:30;32.19;39.41
69715;HTU21D;56981;53.532;49.398;2022-08-03T05:42:00;31.93;39.56
69715;HTU21D;56981;53.532;49.398;2022-08-03T05:44:27;30.74;42.46
69715;HTU21D;56981;53.532;49.398;2022-08-03T05:46:53;30.66;42.05
69715;HTU21D;56981;53.532;49.398;2022-08-03T05:49:19;30.61;42.36
69715;HTU21D;56981;53.532;49.398;2022-08-03T05:51:46;29.83;44.01
69715;HTU21D;56981;53.532;49.398;2022-08-03T05:54:12;29.94;44.00
69715;HTU21D;56981;53.532;49.398;2022-08-03T05:56:38;29.87;43.79
69715;HTU21D;56981;53.532;49.398;2022-08-03T05:59:07;30.22;42.70
69715;HTU21D;56981;53.532;49.398;2022-08-03T06:01:33;29.83;42.81
69715;HTU21D;56981;53.532;49.398;2022-08-03T06:03:59;30.54;41.80
69715;HTU21D;56981;53.532;49.398;2022-08-03T06:06:25;30.86;40.96
69715;HTU21D;56981;53.532;49.398;2022-08-03T06:08:51;30.67;41.39
69715;HTU21D;56981;53.532;49.398;2022-08-03T06:11:19;30.27;41.97
69715;HTU21D;56981;53.532;49.398;2022-08-03T06:13:45;30.18;42.09
69715;HTU21D;56981;53.532;49.398;2022-08-03T06:16:11;30.30;43.42
69715;HTU21D;56981;53.532;49.398;2022-08-03T06:18:37;29.96;42.00
69715;HTU21D;56981;53.532;49.398;2022-08-03T06:21:03;30.07;41.64
69715;HTU21D;56981;53.532;49.398;2022-08-03T06:23:29;30.37;41.33
69715;HTU21D;56981;53.532;49.398;2022-08-03T06:25:56;30.94;39.17
69715;HTU21D;56981;53.532;49.398;2022-08-03T06:28:22;31.71;38.36
69715;HTU21D;56981;53.532;49.398;2022-08-03T06:30:48;31.71;38.88
69715;HTU21D;56981;53.532;49.398;2022-08-03T06:33:14;31.34;39.05
69715;HTU21D;56981;53.532;49.398;2022-08-03T06:35:41;31.45;38.65
69715;HTU21D;56981;53.532;49.398;2022-08-03T06:38:07;31.76;36.96
69715;HTU21D;56981;53.532;49.398;2022-08-03T06:40:35;32.01;36.21
69715;HTU21D;56981;53.532;49.398;2022-08-03T06:43:05;32.30;35.63
69715;HTU21D;56981;53.532;49.398;2022-08-03T06:45:32;32.22;36.24
69715;HTU21D;56981;53.532;49.398;2022-08-03T06:48:11;32.88;35.32
69715;HTU21D;56981;53.532;49.398;2022-08-03T06:50:39;33.42;33.95
69715;HTU21D;56981;53.532;49.398;2022-08-03T06:53:06;33.28;33.46
69715;HTU21D;56981;53.532;49.398;2022-08-03T06:55:34;33.47;33.95
69715;HTU21D;56981;53.532;49.398;2022-08-03T06:58:00;33.88;32.53
69715;HTU21D;56981;53.532;49.398;2022-08-03T07:00:26;33.67;32.55
69715;HTU21D;56981;53.532;49.398;2022-08-03T07:02:53;33.33;33.82
69715;HTU21D;56981;53.532;49.398;2022-08-03T07:05:19;33.78;33.30
69715;HTU21D;56981;53.532;49.398;2022-08-03T07:07:45;33.87;33.41
69715;HTU21D;56981;53.532;49.398;2022-08-03T07:10:11;34.23;32.83
69715;HTU21D;56981;53.532;49.398;2022-08-03T07:12:38;34.57;32.31
69715;HTU21D;56981;53.532;49.398;2022-08-03T07:15:06;34.39;32.61
69715;HTU21D;56981;53.532;49.398;2022-08-03T07:17:33;33.35;33.90
69715;HTU21D;56981;53.532;49.398;2022-08-03T07:20:01;32.44;35.47
69715;HTU21D;56981;53.532;49.398;2022-08-03T07:22:28;31.44;37.63
69715;HTU21D;56981;53.532;49.398;2022-08-03T07:24:54;31.88;36.57
69715;HTU21D;56981;53.532;49.398;2022-08-03T07:27:21;32.60;35.39
69715;HTU21D;56981;53.532;49.398;2022-08-03T07:29:47;32.68;34.94
69715;HTU21D;56981;53.532;49.398;2022-08-03T07:32:14;33.51;33.38
69715;HTU21D;56981;53.532;49.398;2022-08-03T07:34:40;33.49;33.16
69715;HTU21D;56981;53.532;49.398;2022-08-03T07:37:06;33.99;32.93
69715;HTU21D;56981;53.532;49.398;2022-08-03T07:39:32;33.90;31.16
69715;HTU21D;56981;53.532;49.398;2022-08-03T07:41:58;33.67;32.15
69715;HTU21D;56981;53.532;49.398;2022-08-03T07:44:24;33.62;32.15
69715;HTU21D;56981;53.532;49.398;2022-08-03T07:46:50;33.03;33.25
69715;HTU21D;56981;53.532;49.398;2022-08-03T07:49:16;32.62;34.29
69715;HTU21D;56981;53.532;49.398;2022-08-03T07:51:43;32.56;33.99
69715;HTU21D;56981;53.532;49.398;2022-08-03T07:54:09;32.33;34.57
69715;HTU21D;56981;53.532;49.398;2022-08-03T07:56:36;32.79;34.23
69715;HTU21D;56981;53.532;49.398;2022-08-03T07:59:02;32.92;33.46
69715;HTU21D;56981;53.532;49.398;2022-08-03T08:01:28;32.50;34.31
69715;HTU21D;56981;53.532;49.398;2022-08-03T08:03:54;31.70;35.28
69715;HTU21D;56981;53.532;49.398;2022-08-03T08:06:21;31.86;35.07
69715;HTU21D;56981;53.532;49.398;2022-08-03T08:08:47;31.61;35.07
69715;HTU21D;56981;53.532;49.398;2022-08-03T08:11:13;31.61;34.86
69715;HTU21D;56981;53.532;49.398;2022-08-03T08:13:39;31.76;35.85
69715;HTU21D;56981;53.532;49.398;2022-08-03T08:16:05;32.43;34.26
69715;HTU21D;56981;53.532;49.398;2022-08-03T08:18:32;32.77;33.15
69715;HTU21D;56981;53.532;49.398;2022-08-03T08:20:59;32.87;33.90
69715;HTU21D;56981;53.532;49.398;2022-08-03T08:23:26;32.54;34.22
69715;HTU21D;56981;53.532;49.398;2022-08-03T08:25:52;32.35;34.89
69715;HTU21D;56981;53.532;49.398;2022-08-03T08:28:20;32.15;35.03
69715;HTU21D;56981;53.532;49.398;2022-08-03T08:30:46;31.71;36.35
69715;HTU21D;56981;53.532;49.398;2022-08-03T08:33:13;31.30;36.94
69715;HTU21D;56981;53.532;49.398;2022-08-03T08:35:39;30.85;37.59
69715;HTU21D;56981;53.532;49.398;2022-08-03T08:38:05;31.16;37.24
69715;HTU21D;56981;53.532;49.398;2022-08-03T08:40:32;30.90;37.98
69715;HTU21D;56981;53.532;49.398;2022-08-03T08:42:58;30.30;39.40
69715;HTU21D;56981;53.532;49.398;2022-08-03T08:45:24;30.37;39.45
69715;HTU21D;56981;53.532;49.398;2022-08-03T08:47:51;30.28;39.63
69715;HTU21D;56981;53.532;49.398;2022-08-03T08:50:20;30.28;39.94
69715;HTU21D;56981;53.532;49.398;2022-08-03T08:52:48;30.22;40.60
69715;HTU21D;56981;53.532;49.398;2022-08-03T08:55:20;30.18;40.71
69715;HTU21D;56981;53.532;49.398;2022-08-03T08:57:58;30.44;39.47
69715;HTU21D;56981;53.532;49.398;2022-08-03T09:00:26;30.30;38.88
69715;HTU21D;56981;53.532;49.398;2022-08-03T09:02:52;30.12;39.18
69715;HTU21D;56981;53.532;49.398;2022-08-03T09:05:19;29.88;40.42
69715;HTU21D;56981;53.532;49.398;2022-08-03T09:07:46;29.95;39.41
69715;HTU21D;56981;53.532;49.398;2022-08-03T09:10:14;30.26;38.69
69715;HTU21D;56981;53.532;49.398;2022-08-03T09:12:45;30.23;40.46
69715;HTU21D;56981;53.532;49.398;2022-08-03T09:17:46;29.73;41.50
69715;HTU21D;56981;53.532;49.398;2022-08-03T09:20:13;29.53;42.09
69715;HTU21D;56981;53.532;49.398;2022-08-03T09:23:00;29.21;42.77
69715;HTU21D;56981;53.532;49.398;2022-08-03T09:25:29;29.04;44.05
69715;HTU21D;56981;53.532;49.398;2022-08-03T09:28:20;29.06;42.37
69715;HTU21D;56981;53.532;49.398;2022-08-03T09:30:58;29.24;42.07
69715;HTU21D;56981;53.532;49.398;2022-08-03T09:33:24;29.48;42.20
69715;HTU21D;56981;53.532;49.398;2022-08-03T09:35:50;29.73;42.31
69715;HTU21D;56981;53.532;49.398;2022-08-03T09:38:18;29.48;42.39
69715;HTU21D;56981;53.532;49.398;2022-08-03T09:40:49;29.30;42.68
69715;HTU21D;56981;53.532;49.398;2022-08-03T09:43:15;29.37;42.09
69715;HTU21D;56981;53.532;49.398;2022-08-03T09:45:41;29.64;42.84
69715;HTU21D;56981;53.532;49.398;2022-08-03T09:48:30;29.70;41.46
69715;HTU21D;56981;53.532;49.398;2022-08-03T09:51:00;29.79;41.80
69715;HTU21D;56981;53.532;49.398;2022-08-03T09:53:28;29.62;41.92
69715;HTU21D;56981;53.532;49.398;2022-08-03T09:55:56;29.52;41.37
69715;HTU21D;56981;53.532;49.398;2022-08-03T09:58:24;29.63;42.04
69715;HTU21D;56981;53.532;49.398;2022-08-03T10:03:30;29.90;42.09
69715;HTU21D;56981;53.532;49.398;2022-08-03T10:05:57;30.01;41.03
69715;HTU21D;56981;53.532;49.398;2022-08-03T10:08:23;30.10;40.33
69715;HTU21D;56981;53.532;49.398;2022-08-03T10:10:50;30.10;39.30
69715;HTU21D;56981;53.532;49.398;2022-08-03T10:13:21;30.19;39.55
69715;HTU21D;56981;53.532;49.398;2022-08-03T10:15:48;30.38;39.79
69715;HTU21D;56981;53.532;49.398;2022-08-03T10:18:14;30.41;39.41
69715;HTU21D;56981;53.532;49.398;2022-08-03T10:20:48;30.46;39.27
69715;HTU21D;56981;53.532;49.398;2022-08-03T10:23:17;30.32;39.01
69715;HTU21D;56981;53.532;49.398;2022-08-03T10:25:49;30.13;39.60
69715;HTU21D;56981;53.532;49.398;2022-08-03T10:28:18;30.02;39.35
69715;HTU21D;56981;53.532;49.398;2022-08-03T10:30:48;30.19;37.40
69715;HTU21D;56981;53.532;49.398;2022-08-03T10:33:20;30.34;36.87
69715;HTU21D;56981;53.532;49.398;2022-08-03T10:35:56;30.41;38.62
69715;HTU21D;56981;53.532;49.398;2022-08-03T10:38:28;30.20;38.37
69715;HTU21D;56981;53.532;49.398;2022-08-03T10:40:56;29.89;39.04
69715;HTU21D;56981;53.532;49.398;2022-08-03T10:43:35;29.66;40.37
69715;HTU21D;56981;53.532;49.398;2022-08-03T10:46:05;29.32;40.68
69715;HTU21D;56981;53.532;49.398;2022-08-03T10:48:34;29.31;40.92
69715;HTU21D;56981;53.532;49.398;2022-08-03T10:51:01;29.52;42.18
69715;HTU21D;56981;53.532;49.398;2022-08-03T10:53:38;29.59;39.39
69715;HTU21D;56981;53.532;49.398;2022-08-03T10:56:05;29.58;39.43
69715;HTU21D;56981;53.532;49.398;2022-08-03T10:58:52;29.74;39.69
69715;HTU21D;56981;53.532;49.398;2022-08-03T11:01:49;29.96;39.51
69715;HTU21D;56981;53.532;49.398;2022-08-03T11:04:20;30.15;39.00
69715;HTU21D;56981;53.532;49.398;2022-08-03T11:09:41;29.86;40.62
69715;HTU21D;56981;53.532;49.398;2022-08-03T11:14:47;29.52;40.32
69715;HTU21D;56981;53.532;49.398;2022-08-03T11:17:14;29.39;40.28
69715;HTU21D;56981;53.532;49.398;2022-08-03T11:19:48;29.35;40.41
69715;HTU21D;56981;53.532;49.398;2022-08-03T11:22:15;29.36;39.66
69715;HTU21D;56981;53.532;49.398;2022-08-03T11:27:24;29.17;40.81
69715;HTU21D;56981;53.532;49.398;2022-08-03T11:30:04;29.16;39.85
69715;HTU21D;56981;53.532;49.398;2022-08-03T11:35:15;29.02;40.51
69715;HTU21D;56981;53.532;49.398;2022-08-03T11:40:37;29.19;40.15
69715;HTU21D;56981;53.532;49.398;2022-08-03T11:43:05;29.29;40.66
69715;HTU21D;56981;53.532;49.398;2022-08-03T11:45:32;29.43;40.12
69715;HTU21D;56981;53.532;49.398;2022-08-03T11:48:13;29.62;39.82
69715;HTU21D;56981;53.532;49.398;2022-08-03T11:50:41;29.90;39.46
69715;HTU21D;56981;53.532;49.398;2022-08-03T11:53:17;29.90;38.38
69715;HTU21D;56981;53.532;49.398;2022-08-03T11:55:45;29.90;38.24
69715;HTU21D;56981;53.532;49.398;2022-08-03T11:58:18;29.83;39.10
69715;HTU21D;56981;53.532;49.398;2022-08-03T12:00:44;29.76;39.06
69715;HTU21D;56981;53.532;49.398;2022-08-03T12:03:18;29.64;39.44
69715;HTU21D;56981;53.532;49.398;2022-08-03T12:05:50;29.56;39.02
69715;HTU21D;56981;53.532;49.398;2022-08-03T12:10:54;29.19;39.88
69715;HTU21D;56981;53.532;49.398;2022-08-03T12:13:21;29.19;40.26
69715;HTU21D;56981;53.532;49.398;2022-08-03T12:15:53;29.14;39.68
69715;HTU21D;56981;53.532;49.398;2022-08-03T12:18:20;29.09;40.26
69715;HTU21D;56981;53.532;49.398;2022-08-03T12:20:49;28.95;40.94
69715;HTU21D;56981;53.532;49.398;2022-08-03T12:23:15;28.91;41.23
69715;HTU21D;56981;53.532;49.398;2022-08-03T12:25:43;28.92;41.70
69715;HTU21D;56981;53.532;49.398;2022-08-03T12:28:15;28.82;42.10
69715;HTU21D;56981;53.532;49.398;2022-08-03T12:30:42;28.80;42.23
69715;HTU21D;56981;53.532;49.398;2022-08-03T12:33:26;29.05;41.92
69715;HTU21D;56981;53.532;49.398;2022-08-03T12:36:09;29.21;40.49
69715;HTU21D;56981;53.532;49.398;2022-08-03T12:38:37;29.30;40.94
69715;HTU21D;56981;53.532;49.398;2022-08-03T12:41:06;29.41;41.73
69715;HTU21D;56981;53.532;49.398;2022-08-03T12:43:34;29.50;40.02
69715;HTU21D;56981;53.532;49.398;2022-08-03T12:46:14;29.65;39.46
69715;HTU21D;56981;53.532;49.398;2022-08-03T12:51:29;29.75;40.68
69715;HTU21D;56981;53.532;49.398;2022-08-03T12:53:57;29.70;38.72
69715;HTU21D;56981;53.532;49.398;2022-08-03T12:56:23;29.53;38.93
69715;HTU21D;56981;53.532;49.398;2022-08-03T12:58:49;29.42;39.14
69715;HTU21D;56981;53.532;49.398;2022-08-03T13:01:16;29.31;39.56
69715;HTU21D;56981;53.532;49.398;2022-08-03T13:03:47;29.31;39.31
69715;HTU21D;56981;53.532;49.398;2022-08-03T13:06:15;29.32;39.54
69715;HTU21D;56981;53.532;49.398;2022-08-03T13:08:42;29.17;39.25
69715;HTU21D;56981;53.532;49.398;2022-08-03T13:11:25;29.12;39.63
69715;HTU21D;56981;53.532;49.398;2022-08-03T13:13:53;29.08;40.25
69715;HTU21D;56981;53.532;49.398;2022-08-03T13:16:20;28.93;40.38
69715;HTU21D;56981;53.532;49.398;2022-08-03T13:18:48;28.85;40.48
69715;HTU21D;56981;53.532;49.398;2022-08-03T13:21:19;28.84;40.90
69715;HTU21D;56981;53.532;49.398;2022-08-03T13:23:45;28.88;40.93
69715;HTU21D;56981;53.532;49.398;2022-08-03T13:26:11;28.89;42.16
69715;HTU21D;56981;53.532;49.398;2022-08-03T13:28:38;28.87;41.37
69715;HTU21D;56981;53.532;49.398;2022-08-03T13:31:05;28.90;42.23
69715;HTU21D;56981;53.532;49.398;2022-08-03T13:33:31;28.95;41.29
69715;HTU21D;56981;53.532;49.398;2022-08-03T13:35:58;29.05;41.23
69715;HTU21D;56981;53.532;49.398;2022-08-03T13:38:24;29.03;41.29
69715;HTU21D;56981;53.532;49.398;2022-08-03T13:40:51;29.07;41.45
69715;HTU21D;56981;53.532;49.398;2022-08-03T13:43:19;29.09;42.26
69715;HTU21D;56981;53.532;49.398;2022-08-03T13:45:46;28.94;42.58
69715;HTU21D;56981;53.532;49.398;2022-08-03T13:48:12;28.83;41.95
69715;HTU21D;56981;53.532;49.398;2022-08-03T13:50:38;28.75;40.64
69715;HTU21D;56981;53.532;49.398;2022-08-03T13:53:04;28.69;41.11
69715;HTU21D;56981;53.532;49.398;2022-08-03T13:55:30;28.63;42.01
69715;HTU21D;56981;53.532;49.398;2022-08-03T13:57:56;28.52;42.33
69715;HTU21D;56981;53.532;49.398;2022-08-03T14:00:22;28.46;42.52
69715;HTU21D;56981;53.532;49.398;2022-08-03T14:02:51;28.37;43.00
69715;HTU21D;56981;53.532;49.398;2022-08-03T14:05:17;28.29;43.25
69715;HTU21D;56981;53.532;49.398;2022-08-03T14:07:43;28.23;43.55
69715;HTU21D;56981;53.532;49.398;2022-08-03T14:10:09;28.11;43.74
69715;HTU21D;56981;53.532;49.398;2022-08-03T14:12:35;28.03;43.58
69715;HTU21D;56981;53.532;49.398;2022-08-03T14:15:02;27.99;44.86
69715;HTU21D;56981;53.532;49.398;2022-08-03T14:17:28;27.95;43.94
69715;HTU21D;56981;53.532;49.398;2022-08-03T14:19:54;27.80;44.33
69715;HTU21D;56981;53.532;49.398;2022-08-03T14:22:20;27.71;45.34
69715;HTU21D;56981;53.532;49.398;2022-08-03T14:24:47;27.60;46.44
69715;HTU21D;56981;53.532;49.398;2022-08-03T14:27:13;27.53;46.15
69715;HTU21D;56981;53.532;49.398;2022-08-03T14:29:39;27.53;46.25
69715;HTU21D;56981;53.532;49.398;2022-08-03T14:32:05;27.47;46.28
69715;HTU21D;56981;53.532;49.398;2022-08-03T14:34:31;27.47;45.54
69715;HTU21D;56981;53.532;49.398;2022-08-03T14:36:57;27.53;46.46
69715;HTU21D;56981;53.532;49.398;2022-08-03T14:39:23;27.54;46.70
69715;HTU21D;56981;53.532;49.398;2022-08-03T14:41:49;27.53;46.54
69715;HTU21D;56981;53.532;49.398;2022-08-03T14:44:15;27.55;46.35
69715;HTU21D;56981;53.532;49.398;2022-08-03T14:46:41;27.58;46.44
69715;HTU21D;56981;53.532;49.398;2022-08-03T14:49:07;27.59;46.48
69715;HTU21D;56981;53.532;49.398;2022-08-03T14:51:33;27.57;46.12
69715;HTU21D;56981;53.532;49.398;2022-08-03T14:54:00;27.55;45.27
69715;HTU21D;56981;53.532;49.398;2022-08-03T14:56:26;27.53;45.75
69715;HTU21D;56981;53.532;49.398;2022-08-03T14:58:52;27.51;45.19
69715;HTU21D;56981;53.532;49.398;2022-08-03T15:01:18;27.52;46.10
69715;HTU21D;56981;53.532;49.398;2022-08-03T15:03:44;27.50;45.85
69715;HTU21D;56981;53.532;49.398;2022-08-03T15:06:12;27.51;45.99
69715;HTU21D;56981;53.532;49.398;2022-08-03T15:08:38;27.49;45.41
69715;HTU21D;56981;53.532;49.398;2022-08-03T15:11:04;27.49;45.25
69715;HTU21D;56981;53.532;49.398;2022-08-03T15:13:30;27.50;45.74
69715;HTU21D;56981;53.532;49.398;2022-08-03T15:15:56;27.45;46.66
69715;HTU21D;56981;53.532;49.398;2022-08-03T15:18:23;27.42;46.83
69715;HTU21D;56981;53.532;49.398;2022-08-03T15:20:49;27.38;47.59
69715;HTU21D;56981;53.532;49.398;2022-08-03T15:23:16;27.35;47.39
69715;HTU21D;56981;53.532;49.398;2022-08-03T15:25:44;27.29;48.31
69715;HTU21D;56981;53.532;49.398;2022-08-03T15:28:10;27.26;48.05
69715;HTU21D;56981;53.532;49.398;2022-08-03T15:30:36;27.22;48.57
69715;HTU21D;56981;53.532;49.398;2022-08-03T15:33:03;27.17;48.28
69715;HTU21D;56981;53.532;49.398;2022-08-03T15:35:29;27.15;48.76
69715;HTU21D;56981;53.532;49.398;2022-08-03T15:37:56;27.09;49.63
69715;HTU21D;56981;53.532;49.398;2022-08-03T15:40:22;26.97;48.96
69715;HTU21D;56981;53.532;49.398;2022-08-03T15:42:48;26.92;49.26
69715;HTU21D;56981;53.532;49.398;2022-08-03T15:45:14;26.87;49.17